createdAt,value
2019-02-05T00:00:18.207Z,82.89
2019-02-05T00:01:18.412Z,82.79
2019-02-05T00:02:18.593Z,83.21
2019-02-05T00:03:18.779Z,83.10
2019-02-05T00:04:19.012Z,83.00
2019-02-05T00:05:19.298Z,83.00
2019-02-05T00:06:19.470Z,82.89
2019-02-05T00:07:19.599Z,82.26
2019-02-05T00:08:19.805Z,83.00
2019-02-05T00:09:20.001Z,82.37
2019-02-05T00:10:20.181Z,82.89
2019-02-05T00:11:20.422Z,82.68
2019-02-05T00:12:25.282Z,82.58
2019-02-05T00:13:20.863Z,82.89
2019-02-05T00:14:20.994Z,82.37
2019-02-05T00:15:21.173Z,82.68
2019-02-05T00:16:21.381Z,82.89
2019-02-05T00:17:21.586Z,83.10
2019-02-05T00:18:21.785Z,82.89
2019-02-05T00:19:22.007Z,82.79
2019-02-05T00:20:22.192Z,83.03
2019-02-05T00:21:22.417Z,83.14
2019-02-05T00:22:22.634Z,82.93
2019-02-05T00:23:22.816Z,83.25
2019-02-05T00:24:23.026Z,82.62
2019-02-05T00:25:23.251Z,82.72
2019-02-05T00:26:23.433Z,82.82
2019-02-05T00:27:23.635Z,83.03
2019-02-05T00:28:23.817Z,82.93
2019-02-05T00:29:24.039Z,82.72
2019-02-05T00:30:24.336Z,83.03
2019-02-05T00:31:24.415Z,83.03
2019-02-05T00:32:24.608Z,83.03
2019-02-05T00:33:24.812Z,82.82
2019-02-05T00:34:25.022Z,82.93
2019-02-05T00:35:25.241Z,82.93
2019-02-05T00:36:25.424Z,82.82
2019-02-05T00:37:25.636Z,82.72
2019-02-05T00:38:25.914Z,82.20
2019-02-05T00:39:26.012Z,82.72
2019-02-05T00:40:26.202Z,82.79
2019-02-05T00:41:26.407Z,82.47
2019-02-05T00:42:26.603Z,82.68
2019-02-05T00:43:26.782Z,81.95
2019-02-05T00:44:27.013Z,82.72
2019-02-05T00:45:27.232Z,82.82
2019-02-05T00:46:27.451Z,82.37
2019-02-05T00:47:27.607Z,82.93
2019-02-05T00:48:27.771Z,82.82
2019-02-05T00:49:27.983Z,82.40
2019-02-05T00:50:28.172Z,82.93
2019-02-05T00:51:28.379Z,82.30
2019-02-05T00:52:28.609Z,82.72
2019-02-05T00:53:28.778Z,82.40
2019-02-05T00:54:29.015Z,82.30
2019-02-05T00:55:29.158Z,82.93
2019-02-05T00:56:29.380Z,82.72
2019-02-05T00:57:29.617Z,82.93
2019-02-05T00:58:29.806Z,83.18
2019-02-05T00:59:30.024Z,82.93
2019-02-05T01:00:30.225Z,82.62
2019-02-05T01:01:30.395Z,82.82
2019-02-05T01:02:30.699Z,82.72
2019-02-05T01:03:30.895Z,82.72
2019-02-05T01:04:31.027Z,82.82
2019-02-05T01:05:31.195Z,82.20
2019-02-05T01:06:31.408Z,82.72
2019-02-05T01:07:31.671Z,82.82
2019-02-05T01:08:31.822Z,82.72
2019-02-05T01:09:32.275Z,82.51
2019-02-05T01:10:32.228Z,82.40
2019-02-05T01:11:32.543Z,82.82
2019-02-05T01:12:32.726Z,82.72
2019-02-05T01:13:32.824Z,82.72
2019-02-05T01:14:33.033Z,82.82
2019-02-05T01:15:33.226Z,82.62
2019-02-05T01:16:33.396Z,82.62
2019-02-05T01:17:33.637Z,82.93
2019-02-05T01:18:33.834Z,82.34
2019-02-05T01:19:34.109Z,82.82
2019-02-05T01:20:34.228Z,82.72
2019-02-05T01:21:34.421Z,82.82
2019-02-05T01:22:34.623Z,82.51
2019-02-05T01:23:34.823Z,82.82
2019-02-05T01:24:35.037Z,82.82
2019-02-05T01:25:35.270Z,82.40
2019-02-05T01:26:35.416Z,81.99
2019-02-05T01:27:35.750Z,81.88
2019-02-05T01:28:35.789Z,81.46
2019-02-05T01:29:36.028Z,81.63
2019-02-05T01:30:36.215Z,81.53
2019-02-05T01:31:36.410Z,81.53
2019-02-05T01:32:36.635Z,80.90
2019-02-05T01:33:36.804Z,80.69
2019-02-05T01:34:37.009Z,80.45
2019-02-05T01:35:37.271Z,80.49
2019-02-05T01:36:37.445Z,80.27
2019-02-05T01:37:38.466Z,80.07
2019-02-05T01:38:37.813Z,79.82
2019-02-05T01:39:38.010Z,79.82
2019-02-05T01:40:38.220Z,80.03
2019-02-05T01:41:38.412Z,79.82
2019-02-05T01:42:38.628Z,79.40
2019-02-05T01:43:38.816Z,78.99
2019-02-05T01:44:39.145Z,79.09
2019-02-05T01:45:39.341Z,79.36
2019-02-05T01:46:39.407Z,78.67
2019-02-05T01:47:39.634Z,78.46
2019-02-05T01:48:39.807Z,78.22
2019-02-05T01:49:40.096Z,78.95
2019-02-05T01:50:40.197Z,78.88
2019-02-05T01:51:40.403Z,78.99
2019-02-05T01:52:40.773Z,78.63
2019-02-05T01:53:40.815Z,78.46
2019-02-05T01:54:41.008Z,78.36
2019-02-05T01:55:41.290Z,78.77
2019-02-05T01:56:41.422Z,78.42
2019-02-05T01:57:41.638Z,78.53
2019-02-05T01:58:41.826Z,78.42
2019-02-05T01:59:42.030Z,78.42
2019-02-05T02:00:42.281Z,78.67
2019-02-05T02:01:42.416Z,78.53
2019-02-05T02:02:42.654Z,78.01
2019-02-05T02:03:42.831Z,78.01
2019-02-05T02:04:43.029Z,78.01
2019-02-05T02:05:43.267Z,78.01
2019-02-05T02:06:43.431Z,78.01
2019-02-05T02:07:43.664Z,78.53
2019-02-05T02:08:43.924Z,78.32
2019-02-05T02:09:44.038Z,77.69
2019-02-05T02:10:44.297Z,77.69
2019-02-05T02:11:44.442Z,77.69
2019-02-05T02:12:44.680Z,77.69
2019-02-05T02:13:44.848Z,77.76
2019-02-05T02:14:45.047Z,77.48
2019-02-05T02:15:45.265Z,77.69
2019-02-05T02:16:45.463Z,77.38
2019-02-05T02:17:45.783Z,77.55
2019-02-05T02:18:45.845Z,77.55
2019-02-05T02:19:46.062Z,77.24
2019-02-05T02:20:46.277Z,77.14
2019-02-05T02:21:46.469Z,76.96
2019-02-05T02:22:46.752Z,77.14
2019-02-05T02:23:46.846Z,77.34
2019-02-05T02:24:47.054Z,76.93
2019-02-05T02:25:47.415Z,77.14
2019-02-05T02:26:52.004Z,77.03
2019-02-05T02:27:47.713Z,77.03
2019-02-05T02:28:47.844Z,77.03
2019-02-05T02:29:48.059Z,77.24
2019-02-05T02:30:48.294Z,77.03
2019-02-05T02:31:48.487Z,77.14
2019-02-05T02:32:48.714Z,77.03
2019-02-05T02:33:48.924Z,77.14
2019-02-05T02:34:49.064Z,77.03
2019-02-05T02:35:49.296Z,77.24
2019-02-05T02:36:49.606Z,76.72
2019-02-05T02:37:49.706Z,76.61
2019-02-05T02:38:49.876Z,77.03
2019-02-05T02:39:50.061Z,76.40
2019-02-05T02:40:50.295Z,76.40
2019-02-05T02:41:50.522Z,75.78
2019-02-05T02:42:50.669Z,75.88
2019-02-05T02:43:50.859Z,76.40
2019-02-05T02:44:51.058Z,76.26
2019-02-05T02:45:51.277Z,76.30
2019-02-05T02:46:51.457Z,76.20
2019-02-05T02:47:51.899Z,75.88
2019-02-05T02:48:51.863Z,76.09
2019-02-05T02:49:52.128Z,75.67
2019-02-05T02:50:52.331Z,75.85
2019-02-05T02:51:52.451Z,75.67
2019-02-05T02:52:52.684Z,76.09
2019-02-05T02:53:52.909Z,75.95
2019-02-05T02:54:53.063Z,76.06
2019-02-05T02:55:53.283Z,75.98
2019-02-05T02:57:04.348Z,76.30
2019-02-05T02:57:54.661Z,75.53
2019-02-05T02:58:54.016Z,75.53
2019-02-05T02:59:54.073Z,75.74
2019-02-05T03:00:54.323Z,75.88
2019-02-05T03:01:54.474Z,75.85
2019-02-05T03:02:54.683Z,75.95
2019-02-05T03:03:54.953Z,75.88
2019-02-05T03:04:55.091Z,75.22
2019-02-05T03:05:55.334Z,75.53
2019-02-05T03:06:55.559Z,75.74
2019-02-05T03:07:55.688Z,75.32
2019-02-05T03:08:55.922Z,75.43
2019-02-05T03:09:56.134Z,75.12
2019-02-05T03:10:56.371Z,75.01
2019-02-05T03:11:56.531Z,75.32
2019-02-05T03:12:56.716Z,74.98
2019-02-05T03:13:56.952Z,74.91
2019-02-05T03:14:57.252Z,74.91
2019-02-05T03:15:57.377Z,73.86
2019-02-05T03:16:57.534Z,74.38
2019-02-05T03:17:57.750Z,74.35
2019-02-05T03:18:57.934Z,74.38
2019-02-05T03:19:58.134Z,74.28
2019-02-05T03:20:58.400Z,74.45
2019-02-05T03:21:58.546Z,74.35
2019-02-05T03:22:58.802Z,74.69
2019-02-05T03:23:58.937Z,74.59
2019-02-05T03:24:59.118Z,74.24
2019-02-05T03:25:59.365Z,75.12
2019-02-05T03:26:59.535Z,74.04
2019-02-05T03:27:59.741Z,74.28
2019-02-05T03:28:59.960Z,73.96
2019-02-05T03:30:00.334Z,74.07
2019-02-05T03:31:00.409Z,74.14
2019-02-05T03:32:00.632Z,74.24
2019-02-05T03:33:00.742Z,74.56
2019-02-05T03:34:00.962Z,74.24
2019-02-05T03:35:01.144Z,73.72
2019-02-05T03:36:01.373Z,73.83
2019-02-05T03:37:01.545Z,73.72
2019-02-05T03:38:01.774Z,73.62
2019-02-05T03:39:01.995Z,73.75
2019-02-05T03:40:02.270Z,73.93
2019-02-05T03:41:02.755Z,73.52
2019-02-05T03:42:02.563Z,74.04
2019-02-05T03:43:02.774Z,73.83
2019-02-05T03:44:02.989Z,74.04
2019-02-05T03:45:03.153Z,73.72
2019-02-05T03:46:03.404Z,73.93
2019-02-05T03:47:03.543Z,73.83
2019-02-05T03:48:03.844Z,73.83
2019-02-05T03:49:03.999Z,73.83
2019-02-05T03:50:04.171Z,73.62
2019-02-05T03:51:04.427Z,73.83
2019-02-05T03:52:04.560Z,74.14
2019-02-05T03:53:04.804Z,73.83
2019-02-05T03:54:05.010Z,74.35
2019-02-05T03:55:05.176Z,73.93
2019-02-05T03:56:05.472Z,73.52
2019-02-05T03:57:05.558Z,73.52
2019-02-05T03:58:05.781Z,73.52
2019-02-05T03:59:05.974Z,74.14
2019-02-05T04:00:06.162Z,74.14
2019-02-05T04:01:06.386Z,74.24
2019-02-05T04:02:06.569Z,73.52
2019-02-05T04:03:06.779Z,73.72
2019-02-05T04:04:07.003Z,74.14
2019-02-05T04:05:07.182Z,73.83
2019-02-05T04:06:07.354Z,73.62
2019-02-05T04:07:07.621Z,73.62
2019-02-05T04:08:07.822Z,73.10
2019-02-05T04:09:08.003Z,74.24
2019-02-05T04:10:08.199Z,74.35
2019-02-05T04:11:08.367Z,73.62
2019-02-05T04:12:08.634Z,73.62
2019-02-05T04:13:08.925Z,73.62
2019-02-05T04:14:08.998Z,74.24
2019-02-05T04:15:09.170Z,73.72
2019-02-05T04:16:09.384Z,73.72
2019-02-05T04:17:09.596Z,73.83
2019-02-05T04:18:09.814Z,73.83
2019-02-05T04:19:10.013Z,73.30
2019-02-05T04:20:10.185Z,73.83
2019-02-05T04:21:10.490Z,73.30
2019-02-05T04:22:10.603Z,73.52
2019-02-05T04:23:10.782Z,73.52
2019-02-05T04:24:11.238Z,73.41
2019-02-05T04:25:11.189Z,73.30
2019-02-05T04:26:11.375Z,73.30
2019-02-05T04:27:11.620Z,73.41
2019-02-05T04:28:11.795Z,73.30
2019-02-05T04:29:12.102Z,73.10
2019-02-05T04:30:12.180Z,73.41
2019-02-05T04:31:12.365Z,73.41
2019-02-05T04:32:12.625Z,73.30
2019-02-05T04:33:12.802Z,73.41
2019-02-05T04:34:13.015Z,73.30
2019-02-05T04:35:13.202Z,73.41
2019-02-05T04:36:13.399Z,73.52
2019-02-05T04:37:13.701Z,73.41
2019-02-05T04:38:13.776Z,72.96
2019-02-05T04:39:14.021Z,73.30
2019-02-05T04:40:14.202Z,73.27
2019-02-05T04:41:14.402Z,73.30
2019-02-05T04:42:14.956Z,73.90
2019-02-05T04:43:14.794Z,73.20
2019-02-05T04:44:15.005Z,73.07
2019-02-05T04:45:15.240Z,73.17
2019-02-05T04:46:15.417Z,73.07
2019-02-05T04:47:15.656Z,73.27
2019-02-05T04:48:15.807Z,73.69
2019-02-05T04:49:16.007Z,73.69
2019-02-05T04:50:16.206Z,74.01
2019-02-05T04:51:16.421Z,74.32
2019-02-05T04:52:16.668Z,75.78
2019-02-05T04:53:16.951Z,76.40
2019-02-05T04:54:17.160Z,77.80
2019-02-05T04:55:17.258Z,78.74
2019-02-05T04:56:17.459Z,79.88
2019-02-05T04:57:17.701Z,80.09
2019-02-05T04:58:17.855Z,81.56
2019-02-05T04:59:18.072Z,82.07
2019-02-05T05:00:18.257Z,82.70
2019-02-05T05:01:18.452Z,82.39
2019-02-05T05:02:18.845Z,82.74
2019-02-05T05:03:18.886Z,82.74
2019-02-05T05:04:19.078Z,82.43
2019-02-05T05:05:19.240Z,82.60
2019-02-05T05:06:19.458Z,82.91
2019-02-05T05:07:19.674Z,83.01
2019-02-05T05:08:19.866Z,82.70
2019-02-05T05:09:20.062Z,82.53
2019-02-05T05:10:20.307Z,82.64
2019-02-05T05:11:20.445Z,83.68
2019-02-05T05:12:20.667Z,83.26
2019-02-05T05:13:20.880Z,83.20
2019-02-05T05:14:21.051Z,83.78
2019-02-05T05:15:21.267Z,84.94
2019-02-05T05:16:21.454Z,85.25
2019-02-05T05:17:21.672Z,84.31
2019-02-05T05:18:21.918Z,84.52
2019-02-05T05:19:22.070Z,85.25
2019-02-05T05:20:22.272Z,85.04
2019-02-05T05:21:22.487Z,85.29
2019-02-05T05:22:22.685Z,84.34
2019-02-05T05:23:22.901Z,85.39
2019-02-05T05:24:23.107Z,84.87
2019-02-05T05:25:23.317Z,85.08
2019-02-05T05:26:23.524Z,85.35
2019-02-05T05:27:23.785Z,85.50
2019-02-05T05:28:23.918Z,86.13
2019-02-05T05:29:24.166Z,85.67
2019-02-05T05:30:24.343Z,87.34
2019-02-05T05:31:24.519Z,86.51
2019-02-05T05:32:24.737Z,86.02
2019-02-05T05:33:24.950Z,87.48
2019-02-05T05:34:25.151Z,87.34
2019-02-05T05:35:25.512Z,87.38
2019-02-05T05:36:25.527Z,87.38
2019-02-05T05:37:25.733Z,87.38
2019-02-05T05:38:25.902Z,87.13
2019-02-05T05:39:26.102Z,86.23
2019-02-05T05:40:26.331Z,85.71
2019-02-05T05:41:26.514Z,85.81
2019-02-05T05:42:26.735Z,85.18
2019-02-05T05:43:27.023Z,84.97
2019-02-05T05:44:27.095Z,84.20
2019-02-05T05:45:27.331Z,84.97
2019-02-05T05:46:27.512Z,84.03
2019-02-05T05:47:27.730Z,84.00
2019-02-05T05:48:27.919Z,84.31
2019-02-05T05:49:28.104Z,84.87
2019-02-05T05:50:28.313Z,83.20
2019-02-05T05:51:28.549Z,83.20
2019-02-05T05:52:28.720Z,83.51
2019-02-05T05:53:28.928Z,83.20
2019-02-05T05:54:29.130Z,82.67
2019-02-05T05:55:29.317Z,82.99
2019-02-05T05:56:29.485Z,82.78
2019-02-05T05:57:29.715Z,81.70
2019-02-05T05:58:29.892Z,82.57
2019-02-05T05:59:30.170Z,82.22
2019-02-05T06:00:30.306Z,82.01
2019-02-05T06:01:30.480Z,81.90
2019-02-05T06:02:30.945Z,82.12
2019-02-05T06:03:30.897Z,82.12
2019-02-05T06:04:31.140Z,82.36
2019-02-05T06:05:31.320Z,82.05
2019-02-05T06:06:31.495Z,81.70
2019-02-05T06:07:31.757Z,81.63
2019-02-05T06:08:32.032Z,81.52
2019-02-05T06:09:32.246Z,82.12
2019-02-05T06:10:32.336Z,81.90
2019-02-05T06:11:32.514Z,81.80
2019-02-05T06:12:37.351Z,81.59
2019-02-05T06:13:32.901Z,81.49
2019-02-05T06:14:33.119Z,81.49
2019-02-05T06:15:35.733Z,80.96
2019-02-05T06:16:33.851Z,80.44
2019-02-05T06:17:33.740Z,80.13
2019-02-05T06:18:33.903Z,80.44
2019-02-05T06:19:34.107Z,80.96
2019-02-05T06:20:34.326Z,80.65
2019-02-05T06:21:34.517Z,80.02
2019-02-05T06:22:34.733Z,80.41
2019-02-05T06:23:34.997Z,79.99
2019-02-05T06:24:35.178Z,79.68
2019-02-05T06:25:35.325Z,79.78
2019-02-05T06:26:35.605Z,79.26
2019-02-05T06:27:35.724Z,79.78
2019-02-05T06:28:35.914Z,79.40
2019-02-05T06:29:36.088Z,79.15
2019-02-05T06:30:36.321Z,79.36
2019-02-05T06:31:36.520Z,79.36
2019-02-05T06:32:36.766Z,79.40
2019-02-05T06:33:36.896Z,79.19
2019-02-05T06:34:37.103Z,78.42
2019-02-05T06:35:37.311Z,79.47
2019-02-05T06:36:37.499Z,78.63
2019-02-05T06:37:37.723Z,78.46
2019-02-05T06:38:37.919Z,78.21
2019-02-05T06:39:38.101Z,78.42
2019-02-05T06:40:38.361Z,78.42
2019-02-05T06:41:38.612Z,78.84
2019-02-05T06:42:38.814Z,77.90
2019-02-05T06:43:39.052Z,78.21
2019-02-05T06:44:39.247Z,78.21
2019-02-05T06:45:41.407Z,78.11
2019-02-05T06:46:39.660Z,78.42
2019-02-05T06:47:39.860Z,77.69
2019-02-05T06:48:40.134Z,78.32
2019-02-05T06:49:40.390Z,78.74
2019-02-05T06:50:40.509Z,78.53
2019-02-05T06:51:40.686Z,77.80
2019-02-05T06:52:41.032Z,77.80
2019-02-05T06:53:41.184Z,78.21
2019-02-05T06:54:41.342Z,78.53
2019-02-05T06:55:41.556Z,77.59
2019-02-05T06:56:42.466Z,77.27
2019-02-05T06:57:42.031Z,77.59
2019-02-05T06:58:46.635Z,76.96
2019-02-05T06:59:42.363Z,76.82
2019-02-05T07:00:42.591Z,76.65
2019-02-05T07:01:42.783Z,77.03
2019-02-05T07:02:42.965Z,76.72
2019-02-05T07:03:43.254Z,77.06
2019-02-05T07:04:43.436Z,76.75
2019-02-05T07:05:43.697Z,76.44
2019-02-05T07:06:43.819Z,77.14
2019-02-05T07:07:44.022Z,76.65
2019-02-05T07:08:44.235Z,76.82
2019-02-05T07:09:44.445Z,76.92
2019-02-05T07:10:44.659Z,76.82
2019-02-05T07:11:44.849Z,77.69
2019-02-05T07:12:45.057Z,77.24
2019-02-05T07:13:45.332Z,78.70
2019-02-05T07:14:45.372Z,79.43
2019-02-05T07:15:45.598Z,78.49
2019-02-05T07:16:45.802Z,77.55
2019-02-05T07:17:49.739Z,77.20
2019-02-05T07:18:46.266Z,76.89
2019-02-05T07:19:46.435Z,76.06
2019-02-05T07:20:46.633Z,76.89
2019-02-05T07:21:47.061Z,76.89
2019-02-05T07:22:47.138Z,76.47
2019-02-05T07:23:47.288Z,76.79
2019-02-05T07:24:47.488Z,77.00
2019-02-05T07:25:47.710Z,75.32
2019-02-05T07:26:47.900Z,76.86
2019-02-05T07:27:48.115Z,76.02
2019-02-05T07:28:57.715Z,74.87
2019-02-05T07:29:49.526Z,75.92
2019-02-05T07:30:48.906Z,77.80
2019-02-05T07:31:48.939Z,76.86
2019-02-05T07:32:49.144Z,75.81
2019-02-05T07:33:49.370Z,75.29
2019-02-05T07:34:49.547Z,74.15
2019-02-05T07:35:49.778Z,74.77
2019-02-05T07:36:50.005Z,75.40
2019-02-05T07:37:50.195Z,75.50
2019-02-05T07:38:50.526Z,75.40
2019-02-05T07:39:50.591Z,74.63
2019-02-05T07:40:50.810Z,74.21
2019-02-05T07:41:51.017Z,74.56
2019-02-05T07:42:51.221Z,74.98
2019-02-05T07:43:51.443Z,74.21
2019-02-05T07:44:51.643Z,74.95
2019-02-05T07:45:51.827Z,74.11
2019-02-05T07:46:52.093Z,74.11
2019-02-05T07:47:52.253Z,74.42
2019-02-05T07:48:52.483Z,76.06
2019-02-05T07:49:52.693Z,74.70
2019-02-05T07:50:52.882Z,74.18
2019-02-05T07:51:53.103Z,74.18
2019-02-05T07:52:53.293Z,74.11
2019-02-05T07:53:53.529Z,75.32
2019-02-05T07:54:53.779Z,74.07
2019-02-05T07:55:53.903Z,74.80
2019-02-05T07:56:54.141Z,74.29
2019-02-05T07:57:54.318Z,73.97
2019-02-05T07:58:54.560Z,75.01
2019-02-05T07:59:54.778Z,74.29
2019-02-05T08:00:54.986Z,73.76
2019-02-05T08:01:55.192Z,74.60
2019-02-05T08:02:55.397Z,74.70
2019-02-05T08:03:55.662Z,73.76
2019-02-05T08:04:55.828Z,73.97
2019-02-05T08:05:56.031Z,73.24
2019-02-05T08:06:56.235Z,73.66
2019-02-05T08:07:56.415Z,74.39
2019-02-05T08:08:56.623Z,73.76
2019-02-05T08:09:56.810Z,74.98
2019-02-05T08:10:57.076Z,74.77
2019-02-05T08:11:57.386Z,74.07
2019-02-05T08:12:57.440Z,73.42
2019-02-05T08:13:57.649Z,73.73
2019-02-05T08:14:57.853Z,74.25
2019-02-05T08:15:58.087Z,73.73
2019-02-05T08:16:58.310Z,74.04
2019-02-05T08:17:58.497Z,73.63
2019-02-05T08:18:58.721Z,73.63
2019-02-05T08:19:58.958Z,73.52
2019-02-05T08:20:59.135Z,72.69
2019-02-05T08:21:59.328Z,74.87
2019-02-05T08:22:59.515Z,73.63
2019-02-05T08:23:59.741Z,73.63
2019-02-05T08:24:59.934Z,73.49
2019-02-05T08:26:00.155Z,73.38
2019-02-05T08:27:00.357Z,73.03
2019-02-05T08:28:00.631Z,73.18
2019-02-05T08:29:00.751Z,73.18
2019-02-05T08:30:00.950Z,74.63
2019-02-05T08:31:01.190Z,73.46
2019-02-05T08:32:01.367Z,72.72
2019-02-05T08:33:01.657Z,73.38
2019-02-05T08:34:03.244Z,72.20
2019-02-05T08:35:01.985Z,72.62
2019-02-05T08:36:02.229Z,72.72
2019-02-05T08:37:02.423Z,72.72
2019-02-05T08:38:02.605Z,72.72
2019-02-05T08:39:02.826Z,72.52
2019-02-05T08:40:03.016Z,72.52
2019-02-05T08:41:03.222Z,72.00
2019-02-05T08:42:03.560Z,72.20
2019-02-05T08:43:03.621Z,72.31
2019-02-05T08:44:03.857Z,72.10
2019-02-05T08:45:04.174Z,72.31
2019-02-05T08:46:04.285Z,71.48
2019-02-05T08:47:04.483Z,72.13
2019-02-05T08:48:04.671Z,71.89
2019-02-05T08:49:04.892Z,72.24
2019-02-05T08:50:05.120Z,72.97
2019-02-05T08:51:05.332Z,74.01
2019-02-05T08:52:05.540Z,73.28
2019-02-05T08:53:05.865Z,72.66
2019-02-05T08:54:05.935Z,72.66
2019-02-05T08:55:06.162Z,71.37
2019-02-05T08:56:06.380Z,71.41
2019-02-05T08:57:06.600Z,71.51
2019-02-05T08:58:06.779Z,71.48
2019-02-05T08:59:06.976Z,72.13
2019-02-05T09:00:07.214Z,71.30
2019-02-05T09:01:07.458Z,71.58
2019-02-05T09:02:07.605Z,72.31
2019-02-05T09:03:07.803Z,71.58
2019-02-05T09:04:07.994Z,70.95
2019-02-05T09:05:08.238Z,72.20
2019-02-05T09:06:08.451Z,71.06
2019-02-05T09:07:08.657Z,70.85
2019-02-05T09:08:08.868Z,70.95
2019-02-05T09:09:09.099Z,70.85
2019-02-05T09:10:09.246Z,72.49
2019-02-05T09:11:09.468Z,71.48
2019-02-05T09:12:09.682Z,70.54
2019-02-05T09:13:09.951Z,70.72
2019-02-05T09:14:10.667Z,71.03
2019-02-05T09:15:10.310Z,70.92
2019-02-05T09:16:10.496Z,70.64
2019-02-05T09:17:10.748Z,70.54
2019-02-05T09:18:11.015Z,70.23
2019-02-05T09:19:11.134Z,71.06
2019-02-05T09:20:11.589Z,70.54
2019-02-05T09:21:11.562Z,72.20
2019-02-05T09:22:11.747Z,70.95
2019-02-05T09:23:14.157Z,70.43
2019-02-05T09:24:12.167Z,71.37
2019-02-05T09:25:12.411Z,71.37
2019-02-05T09:26:12.675Z,70.54
2019-02-05T09:27:12.799Z,70.54
2019-02-05T09:28:13.004Z,69.92
2019-02-05T09:29:13.205Z,70.09
2019-02-05T09:30:13.430Z,70.43
2019-02-05T09:31:13.631Z,71.97
2019-02-05T09:32:13.850Z,70.82
2019-02-05T09:33:14.018Z,70.20
2019-02-05T09:34:14.347Z,70.61
2019-02-05T09:35:14.457Z,70.79
2019-02-05T09:36:14.662Z,70.89
2019-02-05T09:37:14.875Z,70.17
2019-02-05T09:38:15.049Z,70.17
2019-02-05T09:39:15.271Z,70.17
2019-02-05T09:40:15.493Z,69.82
2019-02-05T09:41:15.696Z,70.06
2019-02-05T09:42:15.932Z,70.13
2019-02-05T09:43:16.054Z,69.71
2019-02-05T09:44:16.277Z,69.43
2019-02-05T09:45:16.515Z,68.99
2019-02-05T09:46:16.713Z,69.20
2019-02-05T09:47:16.928Z,69.92
2019-02-05T09:48:17.114Z,70.23
2019-02-05T09:49:17.320Z,70.54
2019-02-05T09:50:17.561Z,69.61
2019-02-05T09:51:17.763Z,69.20
2019-02-05T09:52:17.941Z,69.79
2019-02-05T09:53:18.155Z,70.34
2019-02-05T09:54:18.361Z,70.34
2019-02-05T09:55:18.570Z,68.96
2019-02-05T09:56:18.803Z,69.71
2019-02-05T09:57:18.984Z,69.17
2019-02-05T09:58:19.244Z,70.10
2019-02-05T09:59:19.515Z,68.75
2019-02-05T10:00:19.619Z,69.20
2019-02-05T10:01:19.854Z,69.82
2019-02-05T10:02:20.036Z,68.68
2019-02-05T10:03:20.274Z,68.99
2019-02-05T10:04:20.457Z,70.75
2019-02-05T10:05:20.684Z,70.20
2019-02-05T10:06:20.900Z,69.92
2019-02-05T10:07:21.173Z,70.13
2019-02-05T10:08:21.296Z,70.51
2019-02-05T10:09:21.485Z,71.90
2019-02-05T10:10:21.715Z,70.83
2019-02-05T10:11:21.915Z,69.79
2019-02-05T10:12:22.126Z,70.03
2019-02-05T10:13:22.352Z,70.31
2019-02-05T10:14:22.541Z,70.03
2019-02-05T10:15:22.802Z,70.51
2019-02-05T10:16:22.941Z,70.62
2019-02-05T10:17:23.138Z,71.45
2019-02-05T10:18:23.373Z,70.83
2019-02-05T10:19:23.556Z,70.10
2019-02-05T10:20:23.790Z,69.89
2019-02-05T10:21:24.007Z,69.68
2019-02-05T10:22:24.182Z,69.17
2019-02-05T10:23:24.432Z,69.06
2019-02-05T10:24:24.578Z,70.59
2019-02-05T10:25:24.809Z,70.07
2019-02-05T10:26:25.016Z,70.90
2019-02-05T10:27:25.205Z,70.17
2019-02-05T10:28:25.428Z,70.07
2019-02-05T10:29:25.599Z,69.96
2019-02-05T10:30:25.842Z,71.00
2019-02-05T10:31:26.071Z,70.28
2019-02-05T10:32:26.302Z,69.55
2019-02-05T10:33:26.462Z,69.76
2019-02-05T10:34:33.820Z,70.17
2019-02-05T10:35:27.879Z,70.28
2019-02-05T10:36:27.097Z,70.17
2019-02-05T10:37:27.265Z,70.17
2019-02-05T10:38:27.508Z,70.69
2019-02-05T10:39:27.706Z,70.69
2019-02-05T10:40:28.029Z,70.93
2019-02-05T10:41:28.110Z,71.31
2019-02-05T10:42:28.308Z,70.69
2019-02-05T10:43:28.529Z,71.21
2019-02-05T10:44:28.717Z,71.31
2019-02-05T10:45:29.070Z,70.79
2019-02-05T10:46:29.375Z,71.31
2019-02-05T10:47:29.329Z,71.31
2019-02-05T10:48:29.656Z,72.35
2019-02-05T10:49:29.721Z,71.83
2019-02-05T10:50:29.962Z,72.14
2019-02-05T10:51:30.202Z,72.45
2019-02-05T10:52:30.374Z,72.45
2019-02-05T10:53:30.600Z,73.28
2019-02-05T10:54:30.792Z,72.97
2019-02-05T10:55:30.995Z,73.08
2019-02-05T10:56:31.256Z,73.18
2019-02-05T10:57:31.391Z,74.01
2019-02-05T10:58:31.617Z,73.91
2019-02-05T10:59:31.808Z,73.77
2019-02-05T11:00:32.242Z,72.63
2019-02-05T11:01:32.302Z,72.42
2019-02-05T11:02:32.429Z,72.94
2019-02-05T11:03:32.670Z,72.66
2019-02-05T11:04:32.920Z,72.63
2019-02-05T11:05:33.043Z,72.45
2019-02-05T11:06:33.318Z,72.66
2019-02-05T11:07:33.489Z,72.66
2019-02-05T11:08:33.696Z,72.94
2019-02-05T11:09:33.906Z,72.42
2019-02-05T11:10:34.103Z,73.36
2019-02-05T11:11:34.344Z,73.05
2019-02-05T11:12:34.527Z,72.94
2019-02-05T11:13:34.792Z,72.84
2019-02-05T11:14:34.938Z,73.05
2019-02-05T11:15:35.148Z,72.97
2019-02-05T11:16:35.415Z,73.88
2019-02-05T11:17:35.592Z,73.57
2019-02-05T11:18:35.784Z,73.15
2019-02-05T11:19:35.957Z,72.94
2019-02-05T11:20:36.183Z,73.25
2019-02-05T11:21:36.535Z,73.05
2019-02-05T11:22:36.625Z,73.25
2019-02-05T11:23:36.820Z,73.25
2019-02-05T11:24:37.019Z,74.08
2019-02-05T11:25:37.246Z,73.98
2019-02-05T11:26:37.525Z,73.77
2019-02-05T11:27:37.701Z,73.98
2019-02-05T11:28:37.889Z,73.15
2019-02-05T11:29:38.167Z,73.84
2019-02-05T11:30:38.271Z,74.05
2019-02-05T11:31:38.501Z,73.57
2019-02-05T11:32:38.731Z,72.91
2019-02-05T11:33:38.904Z,72.39
2019-02-05T11:34:39.101Z,73.74
2019-02-05T11:35:39.294Z,73.74
2019-02-05T11:36:39.533Z,73.22
2019-02-05T11:37:39.813Z,73.84
2019-02-05T11:38:39.928Z,72.77
2019-02-05T11:39:40.125Z,73.22
2019-02-05T11:40:40.334Z,73.53
2019-02-05T11:41:40.543Z,72.80
2019-02-05T11:42:40.747Z,73.63
2019-02-05T11:43:40.988Z,74.36
2019-02-05T11:44:41.182Z,73.11
2019-02-05T11:45:41.419Z,73.94
2019-02-05T11:46:41.603Z,73.32
2019-02-05T11:47:41.799Z,73.22
2019-02-05T11:48:42.039Z,72.91
2019-02-05T11:49:42.225Z,72.91
2019-02-05T11:50:42.433Z,72.70
2019-02-05T11:51:42.696Z,73.11
2019-02-05T11:52:42.876Z,73.43
2019-02-05T11:53:43.070Z,73.53
2019-02-05T11:54:43.387Z,73.53
2019-02-05T11:55:43.473Z,73.84
2019-02-05T11:56:43.700Z,74.15
2019-02-05T11:57:43.879Z,74.26
2019-02-05T11:58:44.095Z,74.05
2019-02-05T11:59:44.309Z,74.36
2019-02-05T12:00:44.526Z,74.36
2019-02-05T12:01:44.784Z,73.94
2019-02-05T12:02:45.093Z,73.84
2019-02-05T12:03:45.149Z,74.36
2019-02-05T12:04:45.378Z,74.26
2019-02-05T12:05:45.575Z,74.05
2019-02-05T12:06:45.810Z,74.05
2019-02-05T12:07:46.039Z,74.05
2019-02-05T12:08:46.180Z,74.26
2019-02-05T12:09:46.425Z,74.15
2019-02-05T12:10:46.701Z,74.36
2019-02-05T12:11:46.864Z,74.11
2019-02-05T12:12:51.072Z,73.60
2019-02-05T12:13:47.312Z,74.01
2019-02-05T12:14:50.201Z,73.28
2019-02-05T12:15:47.674Z,73.91
2019-02-05T12:16:47.917Z,74.22
2019-02-05T12:17:48.478Z,73.84
2019-02-05T12:18:48.344Z,74.05
2019-02-05T12:19:48.513Z,74.36
2019-02-05T12:20:48.716Z,73.63
2019-02-05T12:21:48.961Z,73.84
2019-02-05T12:22:49.191Z,73.74
2019-02-05T12:23:49.720Z,73.94
2019-02-05T12:24:49.588Z,73.80
2019-02-05T12:25:49.895Z,74.77
2019-02-05T12:26:50.030Z,74.67
2019-02-05T12:27:50.355Z,74.57
2019-02-05T12:28:50.415Z,74.46
2019-02-05T12:29:51.211Z,74.43
2019-02-05T12:30:50.806Z,74.74
2019-02-05T12:31:51.017Z,74.26
2019-02-05T12:32:51.241Z,74.26
2019-02-05T12:33:51.431Z,74.63
2019-02-05T12:34:51.674Z,74.74
2019-02-05T12:35:51.999Z,73.60
2019-02-05T12:36:52.053Z,73.28
2019-02-05T12:37:52.290Z,73.80
2019-02-05T12:38:52.693Z,74.01
2019-02-05T12:39:52.689Z,74.32
2019-02-05T12:40:53.433Z,73.70
2019-02-05T12:41:53.096Z,74.22
2019-02-05T12:42:53.306Z,73.77
2019-02-05T12:43:53.604Z,73.88
2019-02-05T12:44:53.721Z,73.67
2019-02-05T12:45:53.912Z,74.50
2019-02-05T12:46:54.137Z,73.77
2019-02-05T12:47:54.357Z,74.19
2019-02-05T12:48:54.509Z,73.88
2019-02-05T12:49:54.756Z,73.43
2019-02-05T12:50:55.057Z,73.67
2019-02-05T12:51:55.229Z,73.63
2019-02-05T12:52:56.219Z,72.81
2019-02-05T12:53:55.547Z,73.74
2019-02-05T12:54:55.797Z,72.94